La Quiaca, Argentina
Current Conditions -  °F | °C
As of 8:00 PM on Saturday 22 Nov 2014 (Local Time) from SLTJ Reporting Station
Overcast Overcast  
Wind Chill: 17°   Ceiling: 2700
Heat Index: 17°   Visibility: 6mi
Dew Point: 12°   Wind: 6mph
Humidity: 72%   Direction: 130°SE
Pressure: 30.09"   Gusts: NA
Location:  22.11°S, 65.59°W
Report Text: SLTJ 222300Z 13005KT 9999 BKN027 OVC070 17/12 Q1019
Loading
Personal Weather Stations






























Interactive Weather Map New forecast layout! Learn more

10-Day Weather Forecast

Advertisements
Track Severe Weather on mobile